Potter, Nebraska
Current Conditions -  °F | °C
As of 7:55 AM on Wednesday 26 Nov 2014 (Local Time) from KIBM Reporting Station
Light Snow Light Snow  
Wind Chill: 19°   Ceiling: 3600
Heat Index: 27°   Visibility: 2.5mi
Dew Point: 25°   Wind: 7mph
Humidity: 95%   Direction: 310°NW
Pressure: 30.17"   Gusts: NA
Location:  41.22°N, 103.32°W
Report Text: KIBM 261455Z AUTO 31006KT 2 1/2SM -SN BKN036 BKN043 OVC050 M03/M04 A3017 RMK AO2 T10301037
Loading
Personal Weather Stations






























Interactive Weather Map New forecast layout! Learn more

10-Day Weather Forecast

Advertisements
Track Severe Weather on mobile